Time;durP1;ratioP1;P1;durP2;ratioP2;P2;SDS_P1;SDS_P2;PMS_P1;PMS_P2;Temp;Humidity;BMP_temperature;BMP_pressure;BME280_temperature;BME280_humidity;BME280_pressure;Samples;Min_cycle;Max_cycle;Signal;HPM_P1;HPM_P2
2021/01/07 00:01:40;;;;;;;15.48;6.95;;;;;;;3.44;88.25;99171.41;5033504;28;20182;-64
2021/01/07 00:04:06;;;;;;;10.77;5.50;;;;;;;3.51;88.43;99175.59;5033271;28;20204;-65
2021/01/07 00:06:32;;;;;;;11.73;5.70;;;;;;;3.75;87.56;99181.81;5033694;28;20282;-65
2021/01/07 00:08:58;;;;;;;8.73;4.90;;;;;;;3.70;87.02;99174.91;5033058;28;20225;-66
2021/01/07 00:11:24;;;;;;;8.95;5.95;;;;;;;3.74;87.04;99179.19;5033612;28;20341;-66
2021/01/07 00:13:50;;;;;;;11.00;5.63;;;;;;;3.82;87.64;99182.47;5032997;28;20196;-66
2021/01/07 00:16:17;;;;;;;10.35;5.68;;;;;;;3.65;87.63;99187.53;5033443;28;20253;-66
2021/01/07 00:18:43;;;;;;;17.17;7.10;;;;;;;3.69;87.70;99168.72;5033464;28;20184;-65
2021/01/07 00:21:09;;;;;;;10.68;7.40;;;;;;;3.76;87.83;99177.34;5033258;28;20190;-64
2021/01/07 00:23:36;;;;;;;13.18;6.22;;;;;;;3.80;87.25;99172.75;5033269;28;20327;-64
2021/01/07 00:26:02;;;;;;;11.75;5.90;;;;;;;3.84;86.29;99177.91;5032846;28;20196;-64
2021/01/07 00:28:28;;;;;;;11.60;6.38;;;;;;;3.69;86.89;99179.38;5032925;28;20200;-64
2021/01/07 00:30:54;;;;;;;13.35;4.43;;;;;;;3.81;85.99;99178.03;5033272;28;20202;-65
2021/01/07 00:33:21;;;;;;;10.48;5.25;;;;;;;3.74;86.24;99182.72;5032937;28;20193;-65
2021/01/07 00:35:47;;;;;;;9.95;6.55;;;;;;;3.78;86.54;99178.16;5033196;28;20722;-65
2021/01/07 00:38:14;;;;;;;17.58;7.88;;;;;;;3.71;86.85;99176.66;5032950;28;20201;-65
2021/01/07 00:40:41;;;;;;;9.95;5.82;;;;;;;3.64;86.29;99180.44;5033046;28;20186;-65
2021/01/07 00:43:07;;;;;;;12.63;6.85;;;;;;;3.61;86.21;99176.09;5033062;28;20530;-65
2021/01/07 00:45:33;;;;;;;11.63;5.65;;;;;;;3.60;86.27;99173.53;5033045;28;20273;-65
2021/01/07 00:48:00;;;;;;;12.95;6.15;;;;;;;3.66;86.27;99166.16;5032947;28;20571;-65
2021/01/07 00:50:28;;;;;;;13.48;7.15;;;;;;;3.68;86.00;99171.44;5032883;28;20218;-66
2021/01/07 00:52:54;;;;;;;10.93;6.30;;;;;;;3.75;85.30;99170.28;5032570;28;20192;-65
2021/01/07 00:55:20;;;;;;;15.88;6.75;;;;;;;3.63;84.55;99162.75;5032819;28;20298;-65
2021/01/07 00:57:46;;;;;;;13.98;6.82;;;;;;;3.65;85.24;99164.44;5032162;28;20196;-66
2021/01/07 01:00:16;;;;;;;16.60;7.35;;;;;;;3.71;84.84;99160.69;5032664;28;20665;-65
2021/01/07 01:02:42;;;;;;;16.05;7.93;;;;;;;3.75;83.65;99167.63;5032302;28;20200;-65
2021/01/07 01:05:10;;;;;;;14.60;7.10;;;;;;;3.67;83.89;99159.91;5032647;28;20287;-65
2021/01/07 01:07:37;;;;;;;11.35;6.78;;;;;;;3.73;83.45;99161.47;5032650;28;20196;-64
2021/01/07 01:10:06;;;;;;;20.50;8.65;;;;;;;3.62;83.62;99164.56;5032571;28;20206;-66
2021/01/07 01:12:32;;;;;;;14.25;5.82;;;;;;;3.68;83.45;99169.63;5032194;28;20201;-66
2021/01/07 01:14:58;;;;;;;13.75;5.72;;;;;;;3.69;83.46;99163.41;5032068;28;20398;-66
2021/01/07 01:17:24;;;;;;;16.77;7.70;;;;;;;3.65;83.54;99166.22;5032460;28;20201;-64
2021/01/07 01:19:51;;;;;;;10.25;5.55;;;;;;;3.68;83.41;99161.63;5032359;28;20195;-65
2021/01/07 01:22:17;;;;;;;13.85;6.68;;;;;;;3.66;83.44;99162.63;5032031;28;20200;-65
2021/01/07 01:24:44;;;;;;;19.02;7.45;;;;;;;3.59;83.88;99163.78;5032039;28;20696;-66
2021/01/07 01:27:10;;;;;;;17.50;7.25;;;;;;;3.45;84.58;99165.16;5032486;28;20616;-65
2021/01/07 01:29:36;;;;;;;9.07;5.43;;;;;;;3.41;84.70;99171.50;5031936;28;20746;-67
2021/01/07 01:32:02;;;;;;;17.42;6.65;;;;;;;3.24;86.36;99172.13;5031792;28;20321;-66
2021/01/07 01:34:29;;;;;;;11.00;6.40;;;;;;;3.09;87.02;99169.97;5031878;28;20212;-66
2021/01/07 01:36:55;;;;;;;11.80;4.60;;;;;;;3.10;87.62;99172.59;5031793;28;20205;-65
2021/01/07 01:39:22;;;;;;;12.02;5.78;;;;;;;3.09;87.71;99172.63;5031880;28;20312;-66
2021/01/07 01:41:49;;;;;;;11.57;6.00;;;;;;;3.10;87.90;99172.59;5032001;28;20562;-65
2021/01/07 01:44:17;;;;;;;15.20;6.10;;;;;;;3.09;87.77;99178.81;5032274;28;20224;-65
2021/01/07 01:46:44;;;;;;;10.93;5.90;;;;;;;3.21;87.85;99164.25;5031848;28;20563;-66
2021/01/07 01:49:12;;;;;;;13.82;6.78;;;;;;;3.28;88.79;99172.88;5031769;28;20226;-65
2021/01/07 01:51:39;;;;;;;15.93;6.30;;;;;;;3.18;87.85;99171.47;5032076;28;20698;-65
2021/01/07 01:54:06;;;;;;;13.05;6.45;;;;;;;3.50;85.32;99171.16;5031538;28;20212;-66
2021/01/07 01:56:33;;;;;;;11.30;6.38;;;;;;;3.62;84.92;99176.97;5031594;28;20262;-64
2021/01/07 01:59:00;;;;;;;8.48;4.57;;;;;;;3.73;82.85;99175.69;5032057;28;20229;-65
2021/01/07 02:01:27;;;;;;;16.85;7.45;;;;;;;3.57;83.53;99174.47;5031444;28;20233;-66
2021/01/07 02:03:54;;;;;;;15.02;6.72;;;;;;;3.63;84.00;99174.25;5031539;28;20204;-66
2021/01/07 02:06:24;;;;;;;16.50;6.90;;;;;;;3.53;83.80;99173.75;5032100;28;20198;-65
2021/01/07 02:08:52;;;;;;;16.02;7.28;;;;;;;3.35;85.08;99174.41;5033180;28;20640;-65
2021/01/07 02:11:18;;;;;;;6.50;3.88;;;;;;;3.48;82.60;99162.41;5035571;28;20229;-65
2021/01/07 02:13:45;;;;;;;15.98;7.53;;;;;;;3.43;83.53;99167.00;5035508;28;20186;-65
2021/01/07 02:16:18;;;;;;;16.27;8.38;;;;;;;3.49;84.71;99172.09;5035396;28;20198;-66
2021/01/07 02:18:44;;;;;;;15.00;6.35;;;;;;;3.49;82.49;99161.47;5035817;28;20187;-64
2021/01/07 02:21:11;;;;;;;10.80;6.15;;;;;;;3.29;83.23;99162.16;5035655;28;20620;-65
2021/01/07 02:23:46;;;;;;;14.93;7.20;;;;;;;3.24;84.78;99158.81;5035493;28;20272;-67
2021/01/07 02:26:13;;;;;;;13.15;7.50;;;;;;;3.40;83.32;99159.13;5035761;28;20211;-65
2021/01/07 02:28:39;;;;;;;16.25;7.32;;;;;;;3.38;82.60;99163.63;5035205;28;20220;-65
2021/01/07 02:31:05;;;;;;;17.00;7.82;;;;;;;3.41;83.20;99158.19;5035116;28;20643;-64
2021/01/07 02:33:32;;;;;;;12.60;6.43;;;;;;;3.41;83.00;99144.03;5035516;28;20186;-65
2021/01/07 02:35:58;;;;;;;13.05;6.57;;;;;;;3.28;83.68;99160.44;5035129;28;20201;-65
2021/01/07 02:38:25;;;;;;;11.82;6.25;;;;;;;3.52;82.84;99156.00;5035503;28;20194;-65
2021/01/07 02:40:52;;;;;;;16.65;6.88;;;;;;;3.57;82.49;99152.31;5034985;28;20212;-65
2021/01/07 02:43:18;;;;;;;9.45;6.72;;;;;;;3.60;82.02;99149.56;5035287;28;20229;-66
2021/01/07 02:45:44;;;;;;;15.07;6.70;;;;;;;3.48;82.47;99151.75;5035268;28;20193;-64
2021/01/07 02:48:10;;;;;;;14.32;8.50;;;;;;;3.56;82.96;99156.78;5035311;28;20216;-65
2021/01/07 02:50:36;;;;;;;16.30;7.57;;;;;;;3.59;82.35;99158.47;5035123;28;20214;-65
2021/01/07 02:53:03;;;;;;;11.63;6.72;;;;;;;3.40;84.03;99159.13;5034759;28;20204;-65
2021/01/07 02:55:30;;;;;;;17.00;7.28;;;;;;;3.56;83.55;99159.44;5035098;28;20621;-64
2021/01/07 02:57:56;;;;;;;11.93;6.68;;;;;;;3.63;83.32;99158.28;5034654;28;20183;-65
2021/01/07 03:00:22;;;;;;;20.02;7.97;;;;;;;3.59;83.52;99156.66;5034551;28;20295;-65
2021/01/07 03:02:49;;;;;;;14.35;7.00;;;;;;;3.67;81.98;99159.91;5034621;28;20210;-65
2021/01/07 03:05:15;;;;;;;16.00;6.30;;;;;;;3.50;82.49;99163.19;5034769;28;20233;-65
2021/01/07 03:07:41;;;;;;;16.77;7.53;;;;;;;3.68;81.66;99166.09;5034808;28;20244;-67
2021/01/07 03:10:09;;;;;;;12.52;6.35;;;;;;;3.62;81.29;99163.66;5034374;28;20226;-66
2021/01/07 03:12:36;;;;;;;19.77;9.50;;;;;;;3.47;82.15;99165.97;5034812;28;20194;-66
2021/01/07 03:15:04;;;;;;;13.50;5.68;;;;;;;3.39;82.55;99160.03;5034686;28;20221;-64
2021/01/07 03:17:30;;;;;;;11.18;5.72;;;;;;;3.37;82.89;99171.66;5034618;28;20212;-65
2021/01/07 03:19:57;;;;;;;16.25;7.32;;;;;;;3.26;83.47;99170.28;5034309;28;20229;-65
2021/01/07 03:22:23;;;;;;;10.48;6.88;;;;;;;3.21;84.62;99166.03;5034279;28;20208;-65
2021/01/07 03:24:49;;;;;;;12.05;5.22;;;;;;;3.28;83.63;99163.09;5034240;28;20300;-65
2021/01/07 03:27:15;;;;;;;12.00;6.00;;;;;;;3.07;85.05;99163.84;5034705;28;20236;-65
2021/01/07 03:29:42;;;;;;;10.35;6.32;;;;;;;3.05;84.27;99155.94;5033999;28;20202;-64
2021/01/07 03:32:08;;;;;;;14.93;6.75;;;;;;;3.01;84.81;99164.94;5034404;28;20205;-65
2021/01/07 03:34:34;;;;;;;16.55;7.30;;;;;;;3.11;84.26;99158.34;5034375;28;20280;-64
2021/01/07 03:37:01;;;;;;;17.35;6.45;;;;;;;3.27;83.85;99160.50;5034043;28;20233;-64
2021/01/07 03:39:27;;;;;;;16.98;6.68;;;;;;;3.27;83.88;99164.00;5034425;28;20224;-65
2021/01/07 03:41:54;;;;;;;13.60;5.88;;;;;;;3.35;83.42;99155.78;5034345;28;20624;-64
2021/01/07 03:44:20;;;;;;;14.40;5.85;;;;;;;3.53;82.28;99156.91;5034097;28;20282;-65
2021/01/07 03:46:47;;;;;;;13.15;5.72;;;;;;;3.36;82.49;99160.16;5034284;28;20293;-65
2021/01/07 03:49:13;;;;;;;10.07;6.38;;;;;;;3.40;82.51;99161.78;5034174;28;20220;-65
2021/01/07 03:51:39;;;;;;;17.80;7.43;;;;;;;3.34;83.06;99154.88;5034282;28;20643;-65
2021/01/07 03:54:05;;;;;;;12.18;5.80;;;;;;;3.33;82.85;99154.97;5034041;28;20202;-65
2021/01/07 03:56:32;;;;;;;13.18;6.80;;;;;;;3.48;81.33;99154.41;5033648;28;20202;-66
2021/01/07 03:58:58;;;;;;;13.93;6.70;;;;;;;3.40;81.47;99166.25;5033913;28;20248;-64
2021/01/07 04:01:24;;;;;;;13.65;6.38;;;;;;;3.27;82.25;99156.03;5033672;28;20207;-65
2021/01/07 04:03:51;;;;;;;13.95;6.60;;;;;;;3.26;82.52;99159.63;5033282;28;20196;-65
2021/01/07 04:06:17;;;;;;;18.13;6.20;;;;;;;3.04;83.24;99164.81;5033866;28;20300;-66
2021/01/07 04:08:43;;;;;;;17.40;6.43;;;;;;;3.06;83.92;99157.66;5033895;28;20643;-66
2021/01/07 04:11:09;;;;;;;12.02;6.13;;;;;;;3.18;83.32;99158.16;5033670;28;20296;-66
2021/01/07 04:13:35;;;;;;;11.93;6.40;;;;;;;3.35;82.58;99155.78;5033403;28;20198;-64
2021/01/07 04:16:02;;;;;;;9.13;5.28;;;;;;;3.03;83.32;99152.47;5033862;28;20245;-65
2021/01/07 04:18:28;;;;;;;17.35;7.05;;;;;;;3.09;83.81;99156.69;5033147;28;20194;-64
2021/01/07 04:20:55;;;;;;;17.13;6.72;;;;;;;3.07;83.41;99159.38;5033152;28;20189;-64
2021/01/07 04:23:21;;;;;;;12.18;6.35;;;;;;;3.13;83.46;99153.00;5033109;28;20292;-64
2021/01/07 04:25:47;;;;;;;13.75;7.03;;;;;;;3.07;83.18;99153.19;5033565;28;20278;-64
2021/01/07 04:28:13;;;;;;;11.93;6.55;;;;;;;2.92;83.53;99151.97;5032934;28;20186;-65
2021/01/07 04:30:39;;;;;;;12.52;5.43;;;;;;;2.96;83.68;99153.56;5032481;28;20220;-66
2021/01/07 04:33:06;;;;;;;14.48;6.75;;;;;;;2.93;85.01;99148.38;5032572;28;20289;-64
2021/01/07 04:35:32;;;;;;;16.33;6.75;;;;;;;2.84;84.38;99154.84;5033014;28;20202;-65
2021/01/07 04:37:59;;;;;;;13.35;6.15;;;;;;;3.01;83.42;99151.63;5033110;28;20289;-64
2021/01/07 04:40:25;;;;;;;13.52;6.15;;;;;;;2.90;83.20;99156.44;5032948;28;20182;-65
2021/01/07 04:42:51;;;;;;;12.75;6.15;;;;;;;2.61;84.87;99152.97;5033154;28;20240;-66
2021/01/07 04:45:17;;;;;;;12.65;7.03;;;;;;;2.61;87.20;99152.09;5032727;28;20206;-65
2021/01/07 04:47:47;;;;;;;15.43;7.07;;;;;;;2.64;86.35;99157.31;5032663;28;20192;-64
2021/01/07 04:50:13;;;;;;;17.33;6.85;;;;;;;2.77;83.79;99152.47;5032261;28;20309;-65
2021/01/07 04:52:40;;;;;;;11.98;6.18;;;;;;;2.68;84.34;99143.88;5032482;28;20201;-64
2021/01/07 04:55:09;;;;;;;14.20;6.10;;;;;;;2.76;84.38;99146.28;5032921;28;20656;-65
2021/01/07 04:57:35;;;;;;;10.48;6.35;;;;;;;2.74;83.69;99153.44;5032630;28;20263;-65
2021/01/07 05:00:01;;;;;;;15.13;7.15;;;;;;;2.76;83.57;99156.03;5032708;28;20549;-65
2021/01/07 05:02:28;;;;;;;12.07;6.32;;;;;;;2.76;83.89;99153.38;5032705;28;20288;-65
2021/01/07 13:11:01;;;;;;;6.43;3.70;;;;;;;4.77;69.27;99053.38;4770507;29;20224;-69
2021/01/07 13:13:34;;;;;;;10.93;4.30;;;;;;;4.90;69.14;99063.50;4802791;29;20714;-68
2021/01/07 13:16:01;;;;;;;7.78;3.50;;;;;;;4.75;69.38;99057.91;4802791;29;20309;-69
2021/01/07 13:18:28;;;;;;;5.82;3.22;;;;;;;4.62;69.69;99070.03;4802536;29;20211;-67
2021/01/07 13:20:55;;;;;;;7.25;3.67;;;;;;;4.68;70.36;99060.88;4802696;29;20212;-70
2021/01/07 13:23:24;;;;;;;7.18;3.70;;;;;;;4.55;69.94;99063.22;4892968;29;20341;-68
2021/01/07 13:25:54;;;;;;;8.93;3.63;;;;;;;4.43;70.93;99059.25;4913562;29;20220;-69
2021/01/07 13:28:22;;;;;;;5.03;2.45;;;;;;;4.23;71.04;99062.75;4913312;29;20293;-70
2021/01/07 13:30:49;;;;;;;5.97;3.70;;;;;;;4.27;71.70;99063.47;4913152;29;20268;-69
2021/01/07 13:33:16;;;;;;;7.88;4.15;;;;;;;4.38;71.12;99067.44;4913235;29;20216;-69
2021/01/07 13:35:45;;;;;;;8.75;4.07;;;;;;;4.46;70.92;99060.94;4913308;29;20210;-70
2021/01/07 13:38:12;;;;;;;5.88;3.03;;;;;;;4.57;70.44;99067.56;4993998;28;20295;-70
2021/01/07 13:40:42;;;;;;;7.10;2.95;;;;;;;4.47;71.01;99065.31;5051471;28;20246;-69
2021/01/07 13:43:10;;;;;;;7.80;3.90;;;;;;;4.44;71.51;99062.81;5051145;28;20207;-69
2021/01/07 13:45:41;;;;;;;8.50;2.75;;;;;;;4.56;71.48;99071.13;5051342;28;20211;-70
2021/01/07 13:48:11;;;;;;;6.35;1.60;;;;;;;3.92;73.95;99063.97;5051290;28;20205;-69
2021/01/07 13:50:39;;;;;;;7.18;3.50;;;;;;;4.09;73.30;99063.31;5051506;28;20329;-69
2021/01/07 13:53:08;;;;;;;4.93;3.13;;;;;;;4.21;72.93;99066.41;5051387;28;20253;-70
2021/01/07 13:55:35;;;;;;;10.63;4.18;;;;;;;4.35;72.49;99062.25;5051394;28;20296;-68
2021/01/07 13:58:02;;;;;;;3.67;2.50;;;;;;;4.31;71.79;99068.63;5051234;28;20694;-69
2021/01/07 14:00:30;;;;;;;3.30;1.80;;;;;;;4.33;72.10;99069.44;5050675;28;20679;-70
2021/01/07 14:02:57;;;;;;;3.65;3.05;;;;;;;4.22;72.39;99063.66;5051186;28;20355;-69
2021/01/07 14:05:26;;;;;;;6.28;3.85;;;;;;;4.32;72.52;99069.47;5053196;28;20212;-69
2021/01/07 14:08:00;;;;;;;5.40;3.13;;;;;;;4.38;72.03;99063.91;5055026;28;20194;-70
2021/01/07 14:10:32;;;;;;;5.60;3.33;;;;;;;4.21;72.42;99056.63;5055593;28;20287;-68
2021/01/07 14:13:00;;;;;;;5.88;2.97;;;;;;;3.95;74.09;99065.66;5055409;28;20236;-70
2021/01/07 14:15:27;;;;;;;5.85;3.35;;;;;;;3.95;74.21;99058.50;5055100;28;20254;-69
2021/01/07 14:17:54;;;;;;;6.43;3.58;;;;;;;4.27;73.54;99063.47;5055603;28;20208;-70
2021/01/07 14:20:22;;;;;;;6.72;3.50;;;;;;;4.44;72.83;99066.31;5055268;28;20379;-68
2021/01/07 14:22:50;;;;;;;6.18;4.05;;;;;;;4.32;73.17;99057.06;5054979;28;20221;-69
2021/01/07 14:25:31;;;;;;;6.18;3.72;;;;;;;4.04;73.93;99056.44;5054920;28;20198;-68
2021/01/07 14:28:06;;;;;;;3.17;2.20;;;;;;;4.25;73.25;99065.34;4974065;28;20206;-69
2021/01/07 14:30:34;;;;;;;8.30;3.00;;;;;;;3.98;73.68;99060.22;4974186;28;20237;-68
2021/01/07 14:33:04;;;;;;;4.03;1.65;;;;;;;3.76;73.63;99062.84;4973992;28;20209;-68
2021/01/07 14:35:32;;;;;;;2.58;1.90;;;;;;;3.51;75.70;99069.09;4974177;28;20630;-70
2021/01/07 14:37:59;;;;;;;5.38;3.67;;;;;;;3.73;75.48;99068.28;4973687;28;20219;-68
2021/01/07 14:40:30;;;;;;;2.92;2.72;;;;;;;3.68;75.13;99071.13;4973732;28;20240;-69
2021/01/07 14:42:59;;;;;;;1.77;1.67;;;;;;;3.60;75.48;99061.72;4973848;28;20632;-69
2021/01/07 14:45:27;;;;;;;2.15;1.98;;;;;;;3.42;76.41;99069.47;4974075;28;20204;-69
2021/01/07 14:47:55;;;;;;;4.28;2.75;;;;;;;3.43;76.53;99070.31;4973370;28;20216;-70
2021/01/07 14:50:23;;;;;;;3.35;2.55;;;;;;;3.58;75.88;99071.56;4973904;28;20238;-70
2021/01/07 14:52:53;;;;;;;2.88;2.63;;;;;;;3.46;75.96;99071.09;4973787;28;20215;-69
2021/01/07 14:55:20;;;;;;;6.05;2.10;;;;;;;3.51;76.48;99077.09;4973867;28;20223;-69
2021/01/07 14:58:19;;;;;;;2.88;1.88;;;;;;;3.52;75.84;99072.63;4973319;28;20259;-70
2021/01/07 15:00:52;;;;;;;3.88;3.08;;;;;;;3.48;76.91;99076.34;4973356;28;20190;-69
2021/01/07 15:03:40;;;;;;;6.90;2.33;;;;;;;3.36;76.87;99074.13;4973593;28;20196;-70
2021/01/07 15:06:16;;;;;;;6.47;2.55;;;;;;;3.61;77.03;99074.94;5049847;28;20206;-69
2021/01/07 15:08:47;;;;;;;3.90;2.08;;;;;;;3.80;76.08;99074.22;5054019;28;20566;-69
2021/01/07 15:11:14;;;;;;;4.47;3.00;;;;;;;3.65;76.98;99083.69;5054048;28;20206;-69
2021/01/07 15:13:47;;;;;;;4.55;3.47;;;;;;;3.79;76.13;99078.69;5053994;28;20558;-68
2021/01/07 15:16:16;;;;;;;5.05;3.47;;;;;;;3.71;76.86;99076.34;5053657;28;20280;-70
2021/01/07 15:18:51;;;;;;;5.45;3.85;;;;;;;3.86;76.32;99072.19;5054199;28;20205;-69
2021/01/07 15:21:23;;;;;;;3.80;2.80;;;;;;;3.99;76.25;99069.06;5053885;28;20255;-69
2021/01/07 15:24:16;;;;;;;5.45;3.45;;;;;;;3.94;76.16;99082.56;5054182;28;20631;-70
2021/01/07 15:27:07;;;;;;;6.05;2.50;;;;;;;3.94;75.59;99074.59;4972693;28;20209;-69
2021/01/07 15:29:50;;;;;;;9.57;2.78;;;;;;;3.80;76.20;99079.56;4973092;28;20265;-68
2021/01/07 15:32:27;;;;;;;8.88;2.97;;;;;;;3.34;78.81;99082.16;4971621;28;20215;-70
2021/01/07 15:35:07;;;;;;;4.95;2.50;;;;;;;3.33;80.00;99085.78;4973151;28;20653;-69
2021/01/07 15:38:10;;;;;;;4.72;2.70;;;;;;;3.17;81.28;99088.13;4972677;28;20338;-70
2021/01/07 15:41:08;;;;;;;6.78;4.30;;;;;;;3.29;82.19;99095.66;4972802;28;20211;-69
2021/01/07 15:44:07;;;;;;;4.22;3.05;;;;;;;3.19;82.13;99098.69;4972801;28;20551;-70
2021/01/07 15:47:10;;;;;;;1.60;1.42;;;;;;;2.91;83.59;99081.91;4947735;28;20211;-70
2021/01/07 15:49:47;;;;;;;5.43;3.00;;;;;;;2.98;85.44;99090.56;4972664;28;20591;-69
2021/01/07 15:52:40;;;;;;;4.53;2.63;;;;;;;2.96;83.46;99087.06;4972453;28;20192;-70
2021/01/07 15:55:32;;;;;;;4.40;2.58;;;;;;;2.79;85.20;99092.13;4972926;28;20984;-69
2021/01/07 15:58:32;;;;;;;4.70;2.45;;;;;;;2.76;86.01;99101.09;4972597;28;20259;-69
2021/01/07 16:00:59;;;;;;;6.75;4.20;;;;;;;2.82;86.57;99098.19;4972307;28;20258;-69
2021/01/07 16:03:36;;;;;;;4.30;2.50;;;;;;;2.74;86.35;99102.03;5000349;28;20213;-69
2021/01/07 16:06:10;;;;;;;2.08;1.77;;;;;;;2.79;86.68;99108.09;5052993;28;20190;-70
2021/01/07 16:08:38;;;;;;;12.10;5.70;;;;;;;2.86;86.78;99101.63;5035900;28;20193;-70
2021/01/07 16:11:04;;;;;;;4.80;2.80;;;;;;;3.00;87.68;99114.44;5052988;28;20691;-69
2021/01/07 16:13:33;;;;;;;6.53;3.80;;;;;;;3.20;85.98;99105.75;5052517;28;20214;-70
2021/01/07 16:16:00;;;;;;;6.07;2.85;;;;;;;3.17;85.86;99111.22;5051986;28;20201;-71
2021/01/07 16:18:26;;;;;;;6.03;4.10;;;;;;;3.15;85.77;99108.59;5045200;28;20202;-69
2021/01/07 16:20:53;;;;;;;7.95;2.63;;;;;;;3.07;85.87;99111.50;5052420;28;20212;-69
2021/01/07 16:23:22;;;;;;;5.35;3.88;;;;;;;3.13;86.03;99113.09;5052432;28;20205;-68
2021/01/07 16:26:04;;;;;;;7.85;4.10;;;;;;;2.92;86.54;99110.28;5052668;28;20291;-69
2021/01/07 16:28:33;;;;;;;6.28;3.55;;;;;;;2.92;86.97;99112.06;5051883;28;20212;-69
2021/01/07 16:31:01;;;;;;;3.10;2.80;;;;;;;2.91;86.58;99107.66;5052387;28;20229;-69
2021/01/07 16:33:27;;;;;;;7.50;5.57;;;;;;;3.04;87.00;99110.75;5052456;28;20190;-70
2021/01/07 16:35:54;;;;;;;6.45;4.57;;;;;;;3.00;87.36;99111.78;5052669;28;20227;-70
2021/01/07 16:38:24;;;;;;;7.05;3.72;;;;;;;3.07;86.58;99114.16;5052009;28;20287;-69
2021/01/07 16:40:56;;;;;;;5.38;4.00;;;;;;;2.97;86.24;99111.91;5052646;28;20230;-70
2021/01/07 16:43:26;;;;;;;6.05;3.80;;;;;;;2.97;86.46;99112.75;5052000;28;20205;-69
2021/01/07 16:45:54;;;;;;;5.22;2.65;;;;;;;2.87;86.94;99112.22;5052494;28;20296;-70
2021/01/07 16:48:20;;;;;;;8.40;3.55;;;;;;;2.99;86.86;99118.03;5052214;28;20639;-68
2021/01/07 16:50:47;;;;;;;7.47;3.88;;;;;;;3.09;86.03;99116.78;5051882;28;20225;-70
2021/01/07 16:53:13;;;;;;;6.80;3.13;;;;;;;3.07;85.34;99119.47;5052075;28;20197;-70
2021/01/07 16:55:40;;;;;;;9.77;3.50;;;;;;;3.08;84.97;99118.56;5052054;28;20898;-69
2021/01/07 16:58:06;;;;;;;5.97;1.90;;;;;;;3.16;85.12;99112.97;5052175;28;20194;-69
2021/01/07 17:00:32;;;;;;;9.65;4.38;;;;;;;3.26;85.59;99126.84;5052315;28;20532;-68
2021/01/07 17:03:00;;;;;;;4.72;2.90;;;;;;;3.22;84.53;99119.88;5052223;28;20205;-70
2021/01/07 17:05:26;;;;;;;5.47;3.03;;;;;;;3.23;84.09;99121.59;5051783;28;20350;-69
2021/01/07 17:07:52;;;;;;;6.25;3.35;;;;;;;3.12;84.56;99114.91;5051799;28;20630;-69
2021/01/07 17:10:19;;;;;;;7.68;4.75;;;;;;;3.23;85.17;99118.94;5051642;28;20279;-68
2021/01/07 17:12:45;;;;;;;6.90;4.45;;;;;;;3.22;85.23;99119.88;5051567;28;20623;-70
2021/01/07 17:15:13;;;;;;;6.47;3.78;;;;;;;3.31;85.12;99116.88;5052092;28;20209;-70
2021/01/07 17:17:39;;;;;;;5.18;4.07;;;;;;;3.37;84.70;99119.34;5052082;28;20205;-69
2021/01/07 17:20:07;;;;;;;6.53;3.67;;;;;;;3.22;85.12;99114.56;5051634;28;20210;-69
2021/01/07 17:22:34;;;;;;;4.47;3.00;;;;;;;3.11;85.52;99114.94;5051656;28;20212;-70
2021/01/07 17:25:00;;;;;;;8.82;3.78;;;;;;;3.03;86.67;99119.66;5051625;28;20293;-70
2021/01/07 17:27:27;;;;;;;9.38;4.85;;;;;;;3.09;86.58;99114.13;5051536;28;20201;-69
2021/01/07 17:29:55;;;;;;;8.43;3.75;;;;;;;3.05;86.41;99118.69;5051135;28;20287;-70
2021/01/07 17:32:23;;;;;;;6.90;4.20;;;;;;;3.07;86.83;99119.47;5051270;28;20205;-69
2021/01/07 17:34:49;;;;;;;6.57;3.88;;;;;;;2.81;87.33;99117.75;5051287;28;20213;-70
2021/01/07 17:37:17;;;;;;;7.50;3.33;;;;;;;2.80;88.77;99115.13;5050926;28;20193;-70
2021/01/07 17:39:43;;;;;;;7.38;2.58;;;;;;;2.88;87.18;99115.75;5051060;28;20205;-69
2021/01/07 17:42:11;;;;;;;11.43;4.38;;;;;;;2.97;87.72;99110.09;5051211;28;20215;-69
2021/01/07 17:44:38;;;;;;;7.55;4.18;;;;;;;3.01;87.09;99118.81;5051514;28;20267;-69
2021/01/07 17:47:12;;;;;;;6.53;3.33;;;;;;;3.06;86.88;99120.41;5051304;28;20205;-69
2021/01/07 17:49:39;;;;;;;6.22;3.22;;;;;;;3.11;85.75;99117.59;5051391;28;20215;-69
2021/01/07 17:52:09;;;;;;;8.93;3.90;;;;;;;3.03;85.37;99112.56;5051285;28;20224;-70
2021/01/07 17:54:36;;;;;;;2.65;2.25;;;;;;;2.89;86.04;99114.81;5051519;28;20224;-70
2021/01/07 17:57:03;;;;;;;6.72;3.30;;;;;;;2.80;86.29;99120.44;5050877;28;20269;-69
2021/01/07 17:59:29;;;;;;;8.10;3.80;;;;;;;2.81;86.48;99122.19;5051342;28;20616;-70
2021/01/07 18:01:55;;;;;;;7.78;4.68;;;;;;;2.98;87.11;99125.13;5051278;28;20205;-69
2021/01/07 18:04:22;;;;;;;6.70;4.03;;;;;;;2.96;86.94;99124.31;5051276;28;20190;-70
2021/01/07 18:06:48;;;;;;;3.63;3.08;;;;;;;2.96;86.56;99119.00;5051038;28;20189;-68
2021/01/07 18:09:15;;;;;;;14.60;6.03;;;;;;;2.84;86.61;99124.75;5051333;28;20193;-69
2021/01/07 18:11:42;;;;;;;8.90;4.63;;;;;;;2.86;86.86;99125.56;5051507;28;20232;-70
2021/01/07 18:14:08;;;;;;;9.55;3.88;;;;;;;2.93;86.84;99125.28;5051380;28;20607;-68
2021/01/07 18:16:34;;;;;;;8.95;6.13;;;;;;;2.96;86.84;99123.44;5051502;28;20635;-69
2021/01/07 18:19:01;;;;;;;10.13;5.40;;;;;;;2.95;87.30;99130.56;5051359;28;20631;-69
2021/01/07 18:21:28;;;;;;;7.03;3.20;;;;;;;2.69;87.79;99129.66;5051504;28;20255;-69
2021/01/07 18:23:54;;;;;;;9.02;4.35;;;;;;;2.74;88.51;99131.28;5051201;28;20293;-69
2021/01/07 18:26:21;;;;;;;9.98;3.63;;;;;;;2.78;88.61;99128.50;5050719;28;20205;-70
2021/01/07 18:28:49;;;;;;;16.38;5.03;;;;;;;2.74;88.62;99132.19;5050738;28;20296;-70
2021/01/07 18:31:17;;;;;;;6.57;3.70;;;;;;;2.75;88.71;99138.34;5051036;28;20281;-69
2021/01/07 18:33:43;;;;;;;9.18;3.65;;;;;;;2.61;89.88;99137.03;5050961;28;20209;-69
2021/01/07 18:36:16;;;;;;;7.50;4.18;;;;;;;2.65;90.42;99141.31;5050842;28;20237;-69
2021/01/07 18:38:42;;;;;;;8.15;4.22;;;;;;;2.70;90.22;99138.50;5050742;28;20627;-69
2021/01/07 18:41:11;;;;;;;6.10;3.63;;;;;;;2.80;90.29;99142.56;5050782;28;20206;-68
2021/01/07 18:43:39;;;;;;;4.85;3.08;;;;;;;2.81;88.55;99136.34;5050999;28;20214;-70
2021/01/07 18:46:07;;;;;;;7.95;4.53;;;;;;;2.56;89.85;99133.66;5050999;28;20305;-70
2021/01/07 18:48:34;;;;;;;7.47;4.15;;;;;;;2.62;90.75;99140.53;5050780;28;20206;-69
2021/01/07 18:51:02;;;;;;;12.80;5.70;;;;;;;2.84;90.23;99135.38;5052656;28;20655;-70
2021/01/07 18:53:35;;;;;;;5.72;4.35;;;;;;;3.01;88.71;99134.78;5054862;28;20662;-69
2021/01/07 18:56:01;;;;;;;12.63;4.80;;;;;;;3.07;88.29;99132.78;5054191;28;20229;-69
2021/01/07 18:58:27;;;;;;;10.25;4.85;;;;;;;3.15;87.80;99135.19;5054711;28;20210;-69
2021/01/07 19:00:54;;;;;;;7.70;5.07;;;;;;;3.00;88.25;99136.59;5054544;28;20667;-69
2021/01/07 19:03:24;;;;;;;12.27;6.68;;;;;;;2.97;89.55;99138.50;5054252;28;20209;-69
2021/01/07 19:05:51;;;;;;;11.15;5.50;;;;;;;3.19;88.80;99142.16;5054841;28;20266;-71
2021/01/07 19:08:17;;;;;;;15.90;6.38;;;;;;;3.23;87.05;99140.22;5054033;28;20201;-70
2021/01/07 19:10:44;;;;;;;11.50;5.50;;;;;;;3.23;86.10;99140.22;5054180;28;20221;-70
2021/01/07 19:13:25;;;;;;;8.52;4.22;;;;;;;3.13;87.11;99137.91;5054098;28;20207;-69
2021/01/07 19:15:51;;;;;;;9.10;4.50;;;;;;;3.10;85.74;99139.81;4973309;28;20552;-70
2021/01/07 19:18:18;;;;;;;10.98;4.63;;;;;;;3.04;86.20;99140.88;4972983;28;20295;-71
2021/01/07 19:20:45;;;;;;;8.85;5.53;;;;;;;3.02;86.25;99139.19;4973233;28;20294;-69
2021/01/07 19:23:12;;;;;;;9.60;5.13;;;;;;;3.07;86.73;99135.44;4972858;28;20291;-70
2021/01/07 19:25:39;;;;;;;9.20;3.83;;;;;;;3.10;86.40;99137.16;4973427;28;20208;-69
2021/01/07 19:28:06;;;;;;;15.80;4.78;;;;;;;3.05;86.10;99155.94;4973616;28;20200;-69
2021/01/07 19:30:32;;;;;;;10.27;5.07;;;;;;;3.01;85.89;99146.31;4972818;28;20228;-70
2021/01/07 19:32:59;;;;;;;6.90;4.60;;;;;;;3.10;85.34;99153.13;4972945;28;20207;-68
2021/01/07 19:35:26;;;;;;;10.90;5.72;;;;;;;2.91;86.06;99142.22;4972913;28;20215;-69
2021/01/07 19:37:54;;;;;;;10.50;5.50;;;;;;;2.91;86.08;99143.09;4972974;28;20290;-69
2021/01/07 19:40:21;;;;;;;7.68;4.50;;;;;;;2.72;86.67;99148.16;4973180;28;20215;-71
2021/01/07 19:42:54;;;;;;;12.57;4.72;;;;;;;2.65;87.85;99156.41;4973249;28;20211;-70
2021/01/07 19:45:21;;;;;;;6.32;3.35;;;;;;;2.62;88.05;99146.75;4972591;28;20236;-70
2021/01/07 19:47:47;;;;;;;6.60;3.65;;;;;;;2.66;88.45;99155.47;4972913;28;20203;-70
2021/01/07 19:50:14;;;;;;;14.93;4.88;;;;;;;2.62;88.17;99149.41;4972828;28;20696;-70